createdAt,value
2023-04-06T00:02:49.695Z,18
2023-04-06T00:07:52.995Z,18
2023-04-06T00:12:53.140Z,18.1
2023-04-06T00:17:53.897Z,18.1
2023-04-06T00:22:57.233Z,18.1
2023-04-06T00:27:57.280Z,18.1
2023-04-06T00:32:57.959Z,18
2023-04-06T00:37:58.800Z,18
2023-04-06T00:42:59.193Z,18
2023-04-06T00:47:59.760Z,18
2023-04-06T00:52:59.998Z,18
2023-04-06T00:58:03.192Z,18
2023-04-06T01:03:06.046Z,18
2023-04-06T01:08:09.073Z,18
2023-04-06T01:13:11.785Z,18
2023-04-06T01:18:11.935Z,18
2023-04-06T01:23:12.503Z,18
2023-04-06T01:28:13.076Z,18
2023-04-06T01:33:13.671Z,18
2023-04-06T01:38:14.351Z,18
2023-04-06T01:43:15.104Z,18
2023-04-06T01:48:18.495Z,17.9
2023-04-06T01:53:21.424Z,18
2023-04-06T01:58:21.385Z,17.9
2023-04-06T02:03:22.050Z,17.9
2023-04-06T02:08:22.498Z,17.9
2023-04-06T02:13:23.093Z,17.9
2023-04-06T02:18:23.619Z,17.9
2023-04-06T02:23:24.460Z,17.9
2023-04-06T02:28:27.768Z,17.9
2023-04-06T02:33:30.526Z,17.9
2023-04-06T02:38:30.517Z,17.9
2023-04-06T02:43:33.687Z,17.9
2023-04-06T02:48:33.629Z,17.9
2023-04-06T02:53:33.911Z,17.8
2023-04-06T02:58:37.447Z,17.9
2023-04-06T03:03:40.456Z,17.9
2023-04-06T03:08:40.494Z,17.9
2023-04-06T03:13:39.868Z,17.8
2023-04-06T03:18:43.366Z,17.9
2023-04-06T03:23:47.114Z,17.9
2023-04-06T03:28:49.911Z,17.8
2023-04-06T03:33:52.532Z,17.8
2023-04-06T03:38:55.421Z,17.8
2023-04-06T03:43:58.269Z,17.8
2023-04-06T03:49:01.301Z,17.8
2023-04-06T03:54:01.068Z,17.8
2023-04-06T03:59:03.575Z,17.8
2023-04-06T04:04:09.163Z,17.8
2023-04-06T04:09:09.136Z,17.8
2023-04-06T04:14:09.579Z,17.8
2023-04-06T04:19:10.029Z,17.8
2023-04-06T04:24:10.329Z,17.8
2023-04-06T04:29:10.845Z,17.8
2023-04-06T04:34:13.815Z,17.8
2023-04-06T04:39:16.746Z,17.9
2023-04-06T04:44:19.829Z,17.9
2023-04-06T04:49:20.095Z,17.9
2023-04-06T04:54:20.591Z,17.9
2023-04-06T04:59:21.161Z,17.9
2023-04-06T05:04:21.784Z,17.9
2023-04-06T05:09:22.418Z,17.9
2023-04-06T05:14:23.134Z,17.9
2023-04-06T05:19:23.864Z,17.9
2023-04-06T05:24:24.250Z,17.9
2023-04-06T05:29:24.818Z,17.9
2023-04-06T05:34:25.249Z,17.9
2023-04-06T05:39:26.655Z,17.9
2023-04-06T05:44:26.959Z,18
2023-04-06T05:49:27.062Z,17.9
2023-04-06T05:54:30.197Z,17.9
2023-04-06T05:59:30.484Z,18
2023-04-06T06:04:33.851Z,18
2023-04-06T06:09:33.900Z,18
2023-04-06T06:14:34.446Z,18
2023-04-06T06:19:34.881Z,18
2023-04-06T06:24:34.336Z,18
2023-04-06T06:29:35.160Z,18
2023-04-06T06:34:35.839Z,18
2023-04-06T06:39:39.362Z,18
2023-04-06T06:44:39.344Z,18
2023-04-06T06:49:40.136Z,18.1
2023-04-06T06:54:45.220Z,18.2
2023-04-06T06:59:45.057Z,18.2
2023-04-06T07:04:45.724Z,18.3
2023-04-06T07:09:46.367Z,18.3
2023-04-06T07:14:49.884Z,18.4
2023-04-06T07:19:50.014Z,18.4
2023-04-06T07:24:50.732Z,18.4
2023-04-06T07:29:51.480Z,18.5
2023-04-06T07:34:52.246Z,18.5
2023-04-06T07:39:52.779Z,18.5
2023-04-06T07:44:53.466Z,18.5
2023-04-06T07:49:56.612Z,18.6
2023-04-06T07:54:56.855Z,18.6
2023-04-06T08:00:00.502Z,18.6
2023-04-06T08:05:01.364Z,18.6
2023-04-06T08:10:01.825Z,18.6
2023-04-06T08:15:02.578Z,18.7
2023-04-06T08:20:03.288Z,18.7
2023-04-06T08:25:03.667Z,18.7
2023-04-06T08:30:05.106Z,18.7
2023-04-06T08:35:07.590Z,18.7
2023-04-06T08:40:08.840Z,18.8
2023-04-06T08:45:09.205Z,18.8
2023-04-06T08:50:09.760Z,18.8
2023-04-06T08:55:10.439Z,18.8
2023-04-06T09:00:11.110Z,18.8
2023-04-06T09:05:14.421Z,18.8
2023-04-06T09:10:14.510Z,18.8
2023-04-06T09:15:14.892Z,18.8
2023-04-06T09:20:15.477Z,18.9
2023-04-06T09:25:15.779Z,18.8
2023-04-06T09:30:19.119Z,18.9
2023-04-06T09:35:21.743Z,18.9
2023-04-06T09:40:24.708Z,18.9
2023-04-06T09:45:24.935Z,18.9
2023-04-06T09:50:25.668Z,18.9
2023-04-06T09:55:29.017Z,18.9
2023-04-06T10:00:31.959Z,18.9
2023-04-06T10:05:32.077Z,19
2023-04-06T10:10:32.745Z,19
2023-04-06T10:15:33.400Z,19
2023-04-06T10:20:34.093Z,19
2023-04-06T10:25:34.287Z,19
2023-04-06T10:30:35.155Z,19
2023-04-06T10:35:35.723Z,19
2023-04-06T10:40:39.153Z,19
2023-04-06T10:45:39.285Z,19
2023-04-06T10:50:42.619Z,19
2023-04-06T10:55:45.481Z,19
2023-04-06T11:00:50.499Z,19
2023-04-06T11:05:48.924Z,19
2023-04-06T11:10:51.763Z,19.1
2023-04-06T11:15:59.810Z,19
2023-04-06T11:20:59.374Z,19.1
2023-04-06T11:26:02.465Z,19.1
2023-04-06T11:31:05.097Z,19.1
2023-04-06T11:36:08.040Z,19.1
2023-04-06T11:41:09.805Z,19.2
2023-04-06T11:46:10.195Z,19.2
2023-04-06T11:51:10.720Z,19.2
2023-04-06T11:56:11.223Z,19.2
2023-04-06T12:01:12.014Z,19.2
2023-04-06T12:06:12.663Z,19.2
2023-04-06T12:11:13.060Z,19.2
2023-04-06T12:16:13.861Z,19.2
2023-04-06T12:21:14.585Z,19.2
2023-04-06T12:26:15.521Z,19.2
2023-04-06T12:31:16.099Z,19.2
2023-04-06T12:36:16.548Z,19.2
2023-04-06T12:41:19.946Z,19.2
2023-04-06T12:46:20.126Z,19.2
2023-04-06T12:51:20.578Z,19.2
2023-04-06T12:56:21.681Z,19.2
2023-04-06T13:01:22.279Z,19.2
2023-04-06T13:06:22.733Z,19.2
2023-04-06T13:11:27.838Z,19.2
2023-04-06T13:16:28.167Z,19.2
2023-04-06T13:21:31.027Z,19.2
2023-04-06T13:26:31.108Z,19.2
2023-04-06T13:31:31.376Z,19.2
2023-04-06T13:36:31.885Z,19.2
2023-04-06T13:41:35.218Z,19.2
2023-04-06T13:46:35.239Z,19.2
2023-04-06T13:51:38.686Z,19.2
2023-04-06T13:56:38.644Z,19.2
2023-04-06T14:01:39.259Z,19.3
2023-04-06T14:06:42.392Z,19.3
2023-04-06T14:11:42.093Z,19.3
2023-04-06T14:16:46.536Z,19.3
2023-04-06T14:21:46.509Z,19.3
2023-04-06T14:26:47.019Z,19.4
2023-04-06T14:31:53.862Z,19.4
2023-04-06T14:36:53.524Z,19.4
2023-04-06T14:41:56.600Z,19.4
2023-04-06T14:46:56.522Z,19.4
2023-04-06T14:51:56.973Z,19.4
2023-04-06T14:56:57.527Z,19.4
2023-04-06T15:02:00.931Z,19.5
2023-04-06T15:07:00.934Z,19.5
2023-04-06T15:12:04.193Z,19.5
2023-04-06T15:17:04.208Z,19.5
2023-04-06T15:22:07.345Z,19.5
2023-04-06T15:27:07.573Z,19.5
2023-04-06T15:32:07.871Z,19.5
2023-04-06T15:37:08.410Z,19.5
2023-04-06T15:42:09.206Z,19.5
2023-04-06T15:47:09.885Z,19.5
2023-04-06T15:52:10.420Z,19.5
2023-04-06T15:57:10.894Z,19.5
2023-04-06T16:02:11.544Z,19.5
2023-04-06T16:07:14.786Z,19.5
2023-04-06T16:12:17.677Z,19.5
2023-04-06T16:17:17.693Z,19.5
2023-04-06T16:22:18.243Z,19.5
2023-04-06T16:27:17.437Z,19.5
2023-04-06T16:32:37.433Z,19.5
2023-04-06T16:37:35.543Z,19.5
2023-04-06T16:42:35.866Z,19.5
2023-04-06T16:47:36.390Z,19.5
2023-04-06T16:52:37.074Z,19.5
2023-04-06T16:57:40.616Z,19.5
2023-04-06T17:02:41.951Z,19.5
2023-04-06T17:07:41.998Z,19.5
2023-04-06T17:12:58.084Z,19.5
2023-04-06T17:18:07.889Z,19.5
2023-04-06T17:23:06.771Z,19.5
2023-04-06T17:28:09.917Z,19.5
2023-04-06T17:33:09.921Z,19.5
2023-04-06T17:38:10.461Z,19.4
2023-04-06T17:43:11.122Z,19.5
2023-04-06T17:48:11.974Z,19.5
2023-04-06T17:53:12.201Z,19.5
2023-04-06T17:58:15.288Z,19.4
2023-04-06T18:03:15.572Z,19.4
2023-04-06T18:08:15.913Z,19.4
2023-04-06T18:13:16.488Z,19.4
2023-04-06T18:18:17.196Z,19.4
2023-04-06T18:23:17.772Z,19.4
2023-04-06T18:28:18.102Z,19.4
2023-04-06T18:33:18.237Z,19.4
2023-04-06T18:38:21.583Z,19.3
2023-04-06T18:43:21.637Z,19.3
2023-04-06T18:48:22.048Z,19.3
2023-04-06T18:53:25.500Z,19.3
2023-04-06T18:58:25.581Z,19.2
2023-04-06T19:03:35.821Z,19.2
2023-04-06T19:08:34.868Z,19.2
2023-04-06T19:13:38.220Z,19.2
2023-04-06T19:18:40.962Z,19.2
2023-04-06T19:23:42.341Z,19.1
2023-04-06T19:28:42.906Z,19.2
2023-04-06T19:33:43.679Z,19.1
2023-04-06T19:38:44.070Z,19.1
2023-04-06T19:43:44.754Z,19.1
2023-04-06T19:48:45.455Z,19.1
2023-04-06T19:53:48.565Z,19.1
2023-04-06T19:58:48.532Z,19.1
2023-04-06T20:03:51.937Z,19
2023-04-06T20:08:51.919Z,19
2023-04-06T20:13:55.211Z,19
2023-04-06T20:18:55.329Z,19
2023-04-06T20:23:55.778Z,19
2023-04-06T20:28:58.435Z,19
2023-04-06T20:34:05.145Z,18.9
2023-04-06T20:39:09.713Z,19
2023-04-06T20:44:18.579Z,18.9
2023-04-06T20:49:17.680Z,18.9
2023-04-06T20:54:18.117Z,18.9
2023-04-06T20:59:18.507Z,18.9
2023-04-06T21:04:19.367Z,18.9
2023-04-06T21:09:19.775Z,18.9
2023-04-06T21:14:23.459Z,18.9
2023-04-06T21:19:23.121Z,18.9
2023-04-06T21:24:26.424Z,18.9
2023-04-06T21:29:26.508Z,18.8
2023-04-06T21:34:29.909Z,18.9
2023-04-06T21:39:29.943Z,18.8
2023-04-06T21:44:31.151Z,18.8
2023-04-06T21:49:31.536Z,18.8
2023-04-06T21:54:32.022Z,18.8
2023-04-06T21:59:32.381Z,18.8
2023-04-06T22:04:32.894Z,18.8
2023-04-06T22:09:33.229Z,18.8
2023-04-06T22:14:34.830Z,18.8
2023-04-06T22:19:35.294Z,18.8
2023-04-06T22:24:36.133Z,18.8
2023-04-06T22:29:39.224Z,18.8
2023-04-06T22:34:38.309Z,18.7
2023-04-06T22:39:42.511Z,18.8
2023-04-06T22:44:41.254Z,18.7
2023-04-06T22:49:41.876Z,18.7
2023-04-06T22:54:42.262Z,18.7
2023-04-06T22:59:42.896Z,18.7
2023-04-06T23:04:43.217Z,18.7
2023-04-06T23:09:43.850Z,18.7
2023-04-06T23:14:44.099Z,18.7
2023-04-06T23:19:44.597Z,18.7
2023-04-06T23:24:45.191Z,18.7
2023-04-06T23:29:45.606Z,18.7
2023-04-06T23:34:48.906Z,18.7
2023-04-06T23:39:51.625Z,18.7
2023-04-06T23:44:51.749Z,18.7
2023-04-06T23:49:51.083Z,18.6
2023-04-06T23:54:51.904Z,18.6
2023-04-06T23:59:52.492Z,18.6
